Touggourt, Algeria
Current Conditions -  °F | °C
As of 4:00 AM on Wednesday 26 Nov 2014 (Local Time) from DAUK Reporting Station
Few Clouds Few Clouds  
Wind Chill: 63°   Ceiling: Unl
Heat Index: 63°   Visibility: 6mi
Dew Point: 55°   Wind: 9mph
Humidity: 77%   Direction: 40°NE
Pressure: 29.94"   Gusts: NA
Location:  33.11°N, 6.07°E
Report Text: DAUK 260300Z 04008KT 9999 FEW040 17/13 Q1014
Loading
Personal Weather Stations






























Interactive Weather Map New forecast layout! Learn more

10-Day Weather Forecast

Advertisements
Track Severe Weather on mobile